sensor_id;sensor_type;location;lat;lon;timestamp;P1;durP1;ratioP1;P2;durP2;ratioP2
10550;SDS011;5324;50.684;3.862;2024-01-27T00:01:46;16.00;;;7.70;;
10550;SDS011;5324;50.684;3.862;2024-01-27T00:04:13;13.57;;;7.83;;
10550;SDS011;5324;50.684;3.862;2024-01-27T00:06:39;14.47;;;7.77;;
10550;SDS011;5324;50.684;3.862;2024-01-27T00:09:05;12.87;;;8.13;;
10550;SDS011;5324;50.684;3.862;2024-01-27T00:11:31;12.97;;;7.67;;
10550;SDS011;5324;50.684;3.862;2024-01-27T00:13:57;11.80;;;7.40;;
10550;SDS011;5324;50.684;3.862;2024-01-27T00:16:24;11.30;;;7.50;;
10550;SDS011;5324;50.684;3.862;2024-01-27T00:18:50;12.37;;;7.33;;
10550;SDS011;5324;50.684;3.862;2024-01-27T00:21:16;14.73;;;7.37;;
10550;SDS011;5324;50.684;3.862;2024-01-27T00:23:42;13.73;;;6.87;;
10550;SDS011;5324;50.684;3.862;2024-01-27T00:26:08;14.00;;;7.40;;
10550;SDS011;5324;50.684;3.862;2024-01-27T00:28:34;11.27;;;6.60;;
10550;SDS011;5324;50.684;3.862;2024-01-27T00:31:00;10.67;;;6.63;;
10550;SDS011;5324;50.684;3.862;2024-01-27T00:33:26;14.07;;;7.30;;
10550;SDS011;5324;50.684;3.862;2024-01-27T00:35:52;10.63;;;6.80;;
10550;SDS011;5324;50.684;3.862;2024-01-27T00:38:19;10.47;;;6.77;;
10550;SDS011;5324;50.684;3.862;2024-01-27T00:40:45;10.10;;;6.40;;
10550;SDS011;5324;50.684;3.862;2024-01-27T00:43:11;11.87;;;6.80;;
10550;SDS011;5324;50.684;3.862;2024-01-27T00:45:37;10.93;;;6.67;;
10550;SDS011;5324;50.684;3.862;2024-01-27T00:48:04;13.73;;;7.13;;
10550;SDS011;5324;50.684;3.862;2024-01-27T00:50:30;10.97;;;6.57;;
10550;SDS011;5324;50.684;3.862;2024-01-27T00:52:56;10.37;;;7.07;;
10550;SDS011;5324;50.684;3.862;2024-01-27T00:55:22;14.77;;;7.23;;
10550;SDS011;5324;50.684;3.862;2024-01-27T00:57:48;12.40;;;7.40;;
10550;SDS011;5324;50.684;3.862;2024-01-27T01:00:14;12.47;;;6.37;;
10550;SDS011;5324;50.684;3.862;2024-01-27T01:02:40;11.97;;;6.67;;
10550;SDS011;5324;50.684;3.862;2024-01-27T01:05:06;12.77;;;6.67;;
10550;SDS011;5324;50.684;3.862;2024-01-27T01:07:33;10.20;;;6.80;;
10550;SDS011;5324;50.684;3.862;2024-01-27T01:09:59;8.47;;;5.70;;
10550;SDS011;5324;50.684;3.862;2024-01-27T01:12:25;8.57;;;6.43;;
10550;SDS011;5324;50.684;3.862;2024-01-27T01:14:52;8.37;;;6.37;;
10550;SDS011;5324;50.684;3.862;2024-01-27T01:17:18;10.83;;;6.43;;
10550;SDS011;5324;50.684;3.862;2024-01-27T01:19:44;11.63;;;5.93;;
10550;SDS011;5324;50.684;3.862;2024-01-27T01:22:10;13.03;;;7.07;;
10550;SDS011;5324;50.684;3.862;2024-01-27T01:24:36;9.70;;;6.30;;
10550;SDS011;5324;50.684;3.862;2024-01-27T01:27:02;12.63;;;6.87;;
10550;SDS011;5324;50.684;3.862;2024-01-27T01:29:28;7.80;;;5.63;;
10550;SDS011;5324;50.684;3.862;2024-01-27T01:31:54;8.23;;;6.20;;
10550;SDS011;5324;50.684;3.862;2024-01-27T01:34:20;10.87;;;5.83;;
10550;SDS011;5324;50.684;3.862;2024-01-27T01:36:46;12.30;;;6.20;;
10550;SDS011;5324;50.684;3.862;2024-01-27T01:39:13;10.43;;;6.27;;
10550;SDS011;5324;50.684;3.862;2024-01-27T01:41:39;10.13;;;5.70;;
10550;SDS011;5324;50.684;3.862;2024-01-27T01:44:06;8.27;;;5.47;;
10550;SDS011;5324;50.684;3.862;2024-01-27T01:46:32;11.90;;;6.27;;
10550;SDS011;5324;50.684;3.862;2024-01-27T01:48:58;11.23;;;6.00;;
10550;SDS011;5324;50.684;3.862;2024-01-27T01:51:26;10.27;;;6.07;;
10550;SDS011;5324;50.684;3.862;2024-01-27T01:53:52;10.57;;;5.80;;
10550;SDS011;5324;50.684;3.862;2024-01-27T01:56:20;7.47;;;5.40;;
10550;SDS011;5324;50.684;3.862;2024-01-27T01:58:46;8.20;;;6.07;;
10550;SDS011;5324;50.684;3.862;2024-01-27T02:01:12;11.83;;;5.93;;
10550;SDS011;5324;50.684;3.862;2024-01-27T02:03:38;10.03;;;6.43;;
10550;SDS011;5324;50.684;3.862;2024-01-27T02:06:04;6.70;;;5.47;;
10550;SDS011;5324;50.684;3.862;2024-01-27T02:08:31;11.83;;;6.03;;
10550;SDS011;5324;50.684;3.862;2024-01-27T02:10:57;10.50;;;5.60;;
10550;SDS011;5324;50.684;3.862;2024-01-27T02:13:26;9.90;;;6.30;;
10550;SDS011;5324;50.684;3.862;2024-01-27T02:15:53;12.03;;;5.73;;
10550;SDS011;5324;50.684;3.862;2024-01-27T02:18:19;9.83;;;6.03;;
10550;SDS011;5324;50.684;3.862;2024-01-27T02:20:46;13.17;;;5.13;;
10550;SDS011;5324;50.684;3.862;2024-01-27T02:23:12;11.27;;;5.87;;
10550;SDS011;5324;50.684;3.862;2024-01-27T02:25:38;11.50;;;6.30;;
10550;SDS011;5324;50.684;3.862;2024-01-27T02:28:04;8.20;;;5.60;;
10550;SDS011;5324;50.684;3.862;2024-01-27T02:30:30;8.60;;;5.87;;
10550;SDS011;5324;50.684;3.862;2024-01-27T02:32:56;9.30;;;5.77;;
10550;SDS011;5324;50.684;3.862;2024-01-27T02:35:25;10.53;;;5.37;;
10550;SDS011;5324;50.684;3.862;2024-01-27T02:37:51;8.63;;;4.80;;
10550;SDS011;5324;50.684;3.862;2024-01-27T02:40:17;8.43;;;5.53;;
10550;SDS011;5324;50.684;3.862;2024-01-27T02:42:43;9.17;;;5.30;;
10550;SDS011;5324;50.684;3.862;2024-01-27T02:45:10;12.77;;;5.60;;
10550;SDS011;5324;50.684;3.862;2024-01-27T02:47:37;9.00;;;4.93;;
10550;SDS011;5324;50.684;3.862;2024-01-27T02:50:03;9.90;;;5.23;;
10550;SDS011;5324;50.684;3.862;2024-01-27T02:52:31;9.17;;;5.03;;
10550;SDS011;5324;50.684;3.862;2024-01-27T02:54:57;8.10;;;5.27;;
10550;SDS011;5324;50.684;3.862;2024-01-27T02:57:23;8.10;;;5.10;;
10550;SDS011;5324;50.684;3.862;2024-01-27T02:59:49;8.10;;;5.13;;
10550;SDS011;5324;50.684;3.862;2024-01-27T03:02:16;9.73;;;5.30;;
10550;SDS011;5324;50.684;3.862;2024-01-27T03:04:42;9.43;;;5.03;;
10550;SDS011;5324;50.684;3.862;2024-01-27T03:07:08;11.13;;;5.00;;
10550;SDS011;5324;50.684;3.862;2024-01-27T03:09:35;10.77;;;5.60;;
10550;SDS011;5324;50.684;3.862;2024-01-27T03:12:01;10.80;;;4.80;;
10550;SDS011;5324;50.684;3.862;2024-01-27T03:14:27;9.17;;;4.77;;
10550;SDS011;5324;50.684;3.862;2024-01-27T03:16:54;8.60;;;5.27;;
10550;SDS011;5324;50.684;3.862;2024-01-27T03:19:20;10.60;;;5.33;;
10550;SDS011;5324;50.684;3.862;2024-01-27T03:21:47;8.70;;;5.10;;
10550;SDS011;5324;50.684;3.862;2024-01-27T03:24:13;9.77;;;4.60;;
10550;SDS011;5324;50.684;3.862;2024-01-27T03:26:39;9.60;;;4.77;;
10550;SDS011;5324;50.684;3.862;2024-01-27T03:29:05;6.77;;;4.20;;
10550;SDS011;5324;50.684;3.862;2024-01-27T03:31:32;6.53;;;4.57;;
10550;SDS011;5324;50.684;3.862;2024-01-27T03:34:02;11.17;;;4.80;;
10550;SDS011;5324;50.684;3.862;2024-01-27T03:36:28;9.10;;;5.27;;
10550;SDS011;5324;50.684;3.862;2024-01-27T03:38:55;10.30;;;4.40;;
10550;SDS011;5324;50.684;3.862;2024-01-27T03:41:21;6.20;;;4.50;;
10550;SDS011;5324;50.684;3.862;2024-01-27T03:43:47;7.70;;;4.67;;
10550;SDS011;5324;50.684;3.862;2024-01-27T03:46:13;9.37;;;5.03;;
10550;SDS011;5324;50.684;3.862;2024-01-27T03:48:39;11.90;;;4.73;;
10550;SDS011;5324;50.684;3.862;2024-01-27T03:51:05;9.60;;;4.90;;
10550;SDS011;5324;50.684;3.862;2024-01-27T03:53:31;9.90;;;4.50;;
10550;SDS011;5324;50.684;3.862;2024-01-27T03:55:57;9.40;;;4.47;;
10550;SDS011;5324;50.684;3.862;2024-01-27T03:58:24;6.37;;;4.37;;
10550;SDS011;5324;50.684;3.862;2024-01-27T04:00:51;8.33;;;4.43;;
10550;SDS011;5324;50.684;3.862;2024-01-27T04:03:18;10.87;;;4.80;;
10550;SDS011;5324;50.684;3.862;2024-01-27T04:05:44;9.27;;;4.90;;
10550;SDS011;5324;50.684;3.862;2024-01-27T04:08:10;6.77;;;4.30;;
10550;SDS011;5324;50.684;3.862;2024-01-27T04:10:37;6.53;;;4.20;;
10550;SDS011;5324;50.684;3.862;2024-01-27T04:13:03;7.27;;;4.57;;
10550;SDS011;5324;50.684;3.862;2024-01-27T04:15:29;9.17;;;4.43;;
10550;SDS011;5324;50.684;3.862;2024-01-27T04:17:55;6.17;;;4.43;;
10550;SDS011;5324;50.684;3.862;2024-01-27T04:20:22;8.53;;;4.40;;
10550;SDS011;5324;50.684;3.862;2024-01-27T04:22:48;9.60;;;5.10;;
10550;SDS011;5324;50.684;3.862;2024-01-27T04:25:14;10.13;;;5.03;;
10550;SDS011;5324;50.684;3.862;2024-01-27T04:27:41;7.63;;;4.63;;
10550;SDS011;5324;50.684;3.862;2024-01-27T04:30:11;7.60;;;4.30;;
10550;SDS011;5324;50.684;3.862;2024-01-27T04:32:38;8.67;;;4.30;;
10550;SDS011;5324;50.684;3.862;2024-01-27T04:35:04;8.43;;;4.27;;
10550;SDS011;5324;50.684;3.862;2024-01-27T04:37:30;8.07;;;3.97;;
10550;SDS011;5324;50.684;3.862;2024-01-27T04:39:57;6.90;;;4.33;;
10550;SDS011;5324;50.684;3.862;2024-01-27T04:42:23;11.30;;;5.13;;
10550;SDS011;5324;50.684;3.862;2024-01-27T04:44:49;6.17;;;4.47;;
10550;SDS011;5324;50.684;3.862;2024-01-27T04:47:15;6.70;;;4.33;;
10550;SDS011;5324;50.684;3.862;2024-01-27T04:49:42;8.60;;;4.47;;
10550;SDS011;5324;50.684;3.862;2024-01-27T04:52:07;8.67;;;4.53;;
10550;SDS011;5324;50.684;3.862;2024-01-27T04:54:33;7.33;;;3.73;;
10550;SDS011;5324;50.684;3.862;2024-01-27T04:56:59;12.80;;;5.17;;
10550;SDS011;5324;50.684;3.862;2024-01-27T04:59:25;13.03;;;4.60;;
10550;SDS011;5324;50.684;3.862;2024-01-27T05:01:51;12.80;;;4.50;;
10550;SDS011;5324;50.684;3.862;2024-01-27T05:04:18;8.53;;;4.30;;
10550;SDS011;5324;50.684;3.862;2024-01-27T05:06:44;8.07;;;4.50;;
10550;SDS011;5324;50.684;3.862;2024-01-27T05:09:10;6.97;;;4.37;;
10550;SDS011;5324;50.684;3.862;2024-01-27T05:11:37;9.57;;;4.67;;
10550;SDS011;5324;50.684;3.862;2024-01-27T05:14:03;6.10;;;4.47;;
10550;SDS011;5324;50.684;3.862;2024-01-27T05:16:29;9.13;;;4.23;;
10550;SDS011;5324;50.684;3.862;2024-01-27T05:18:56;10.53;;;4.27;;
10550;SDS011;5324;50.684;3.862;2024-01-27T05:21:23;11.90;;;5.27;;
10550;SDS011;5324;50.684;3.862;2024-01-27T05:23:49;10.13;;;4.70;;
10550;SDS011;5324;50.684;3.862;2024-01-27T05:26:15;6.70;;;4.53;;
10550;SDS011;5324;50.684;3.862;2024-01-27T05:28:41;5.53;;;4.60;;
10550;SDS011;5324;50.684;3.862;2024-01-27T05:31:07;9.87;;;4.87;;
10550;SDS011;5324;50.684;3.862;2024-01-27T05:33:36;9.93;;;4.83;;
10550;SDS011;5324;50.684;3.862;2024-01-27T05:36:02;7.90;;;4.57;;
10550;SDS011;5324;50.684;3.862;2024-01-27T05:38:28;8.27;;;5.23;;
10550;SDS011;5324;50.684;3.862;2024-01-27T05:40:55;9.27;;;4.50;;
10550;SDS011;5324;50.684;3.862;2024-01-27T05:43:21;8.67;;;4.27;;
10550;SDS011;5324;50.684;3.862;2024-01-27T05:45:47;8.57;;;4.67;;
10550;SDS011;5324;50.684;3.862;2024-01-27T05:48:14;8.97;;;4.90;;
10550;SDS011;5324;50.684;3.862;2024-01-27T05:50:42;9.17;;;4.77;;
10550;SDS011;5324;50.684;3.862;2024-01-27T05:53:08;9.17;;;5.90;;
10550;SDS011;5324;50.684;3.862;2024-01-27T05:55:35;7.77;;;4.83;;
10550;SDS011;5324;50.684;3.862;2024-01-27T05:58:01;7.83;;;4.93;;
10550;SDS011;5324;50.684;3.862;2024-01-27T06:00:26;10.57;;;4.67;;
10550;SDS011;5324;50.684;3.862;2024-01-27T06:02:52;5.90;;;4.60;;
10550;SDS011;5324;50.684;3.862;2024-01-27T06:05:19;8.60;;;4.60;;
10550;SDS011;5324;50.684;3.862;2024-01-27T06:07:45;9.43;;;4.73;;
10550;SDS011;5324;50.684;3.862;2024-01-27T06:10:13;11.67;;;5.10;;
10550;SDS011;5324;50.684;3.862;2024-01-27T06:12:39;10.83;;;5.83;;
10550;SDS011;5324;50.684;3.862;2024-01-27T06:15:05;10.20;;;5.70;;
10550;SDS011;5324;50.684;3.862;2024-01-27T06:17:33;9.07;;;5.30;;
10550;SDS011;5324;50.684;3.862;2024-01-27T06:19:59;8.50;;;5.33;;
10550;SDS011;5324;50.684;3.862;2024-01-27T06:22:25;7.77;;;5.27;;
10550;SDS011;5324;50.684;3.862;2024-01-27T06:24:51;10.57;;;5.20;;
10550;SDS011;5324;50.684;3.862;2024-01-27T06:27:18;11.50;;;5.53;;
10550;SDS011;5324;50.684;3.862;2024-01-27T06:29:44;11.90;;;5.57;;
10550;SDS011;5324;50.684;3.862;2024-01-27T06:32:10;11.73;;;6.40;;
10550;SDS011;5324;50.684;3.862;2024-01-27T06:34:36;13.97;;;6.37;;
10550;SDS011;5324;50.684;3.862;2024-01-27T06:37:02;8.30;;;6.00;;
10550;SDS011;5324;50.684;3.862;2024-01-27T06:39:29;9.00;;;5.50;;
10550;SDS011;5324;50.684;3.862;2024-01-27T06:41:56;11.90;;;6.60;;
10550;SDS011;5324;50.684;3.862;2024-01-27T06:44:21;10.80;;;5.83;;
10550;SDS011;5324;50.684;3.862;2024-01-27T06:46:47;11.50;;;6.20;;
10550;SDS011;5324;50.684;3.862;2024-01-27T06:49:16;6.57;;;5.30;;
10550;SDS011;5324;50.684;3.862;2024-01-27T06:51:43;11.53;;;5.57;;
10550;SDS011;5324;50.684;3.862;2024-01-27T06:54:09;7.43;;;5.30;;
10550;SDS011;5324;50.684;3.862;2024-01-27T06:56:35;12.47;;;5.87;;
10550;SDS011;5324;50.684;3.862;2024-01-27T06:59:02;11.37;;;5.63;;
10550;SDS011;5324;50.684;3.862;2024-01-27T07:01:28;11.20;;;5.87;;
10550;SDS011;5324;50.684;3.862;2024-01-27T07:03:54;15.77;;;6.13;;
10550;SDS011;5324;50.684;3.862;2024-01-27T07:06:20;14.30;;;6.20;;
10550;SDS011;5324;50.684;3.862;2024-01-27T07:08:46;10.40;;;6.40;;
10550;SDS011;5324;50.684;3.862;2024-01-27T07:11:12;7.83;;;5.50;;
10550;SDS011;5324;50.684;3.862;2024-01-27T07:13:38;9.80;;;6.67;;
10550;SDS011;5324;50.684;3.862;2024-01-27T07:16:04;13.10;;;7.17;;
10550;SDS011;5324;50.684;3.862;2024-01-27T07:18:30;11.83;;;6.47;;
10550;SDS011;5324;50.684;3.862;2024-01-27T07:20:56;12.20;;;7.10;;
10550;SDS011;5324;50.684;3.862;2024-01-27T07:23:24;12.87;;;6.70;;
10550;SDS011;5324;50.684;3.862;2024-01-27T07:25:52;12.63;;;6.90;;
10550;SDS011;5324;50.684;3.862;2024-01-27T07:28:18;10.57;;;6.40;;
10550;SDS011;5324;50.684;3.862;2024-01-27T07:30:44;9.27;;;6.00;;
10550;SDS011;5324;50.684;3.862;2024-01-27T07:33:10;12.57;;;6.77;;
10550;SDS011;5324;50.684;3.862;2024-01-27T07:35:36;8.80;;;5.87;;
10550;SDS011;5324;50.684;3.862;2024-01-27T07:38:02;11.60;;;6.87;;
10550;SDS011;5324;50.684;3.862;2024-01-27T07:40:28;10.70;;;6.20;;
10550;SDS011;5324;50.684;3.862;2024-01-27T07:42:54;10.77;;;6.23;;
10550;SDS011;5324;50.684;3.862;2024-01-27T07:45:20;17.37;;;7.03;;
10550;SDS011;5324;50.684;3.862;2024-01-27T07:47:46;9.50;;;6.77;;
10550;SDS011;5324;50.684;3.862;2024-01-27T07:50:12;13.77;;;6.43;;
10550;SDS011;5324;50.684;3.862;2024-01-27T07:52:38;14.70;;;5.90;;
10550;SDS011;5324;50.684;3.862;2024-01-27T07:55:04;12.13;;;5.90;;
10550;SDS011;5324;50.684;3.862;2024-01-27T07:57:31;11.43;;;5.53;;
10550;SDS011;5324;50.684;3.862;2024-01-27T07:59:57;14.23;;;6.53;;
10550;SDS011;5324;50.684;3.862;2024-01-27T08:02:23;8.23;;;5.47;;
10550;SDS011;5324;50.684;3.862;2024-01-27T08:04:51;9.03;;;5.97;;
10550;SDS011;5324;50.684;3.862;2024-01-27T08:07:17;10.60;;;5.47;;
10550;SDS011;5324;50.684;3.862;2024-01-27T08:09:43;8.60;;;5.53;;
10550;SDS011;5324;50.684;3.862;2024-01-27T08:12:09;7.83;;;4.93;;
10550;SDS011;5324;50.684;3.862;2024-01-27T08:14:36;9.50;;;5.27;;
10550;SDS011;5324;50.684;3.862;2024-01-27T08:17:03;12.37;;;6.27;;
10550;SDS011;5324;50.684;3.862;2024-01-27T08:19:29;12.07;;;5.47;;
10550;SDS011;5324;50.684;3.862;2024-01-27T08:21:55;10.27;;;5.63;;
10550;SDS011;5324;50.684;3.862;2024-01-27T08:24:21;9.73;;;5.73;;
10550;SDS011;5324;50.684;3.862;2024-01-27T08:26:49;8.80;;;5.40;;
10550;SDS011;5324;50.684;3.862;2024-01-27T08:29:15;10.37;;;5.60;;
10550;SDS011;5324;50.684;3.862;2024-01-27T08:31:41;10.80;;;5.77;;
10550;SDS011;5324;50.684;3.862;2024-01-27T08:34:08;11.63;;;6.23;;
10550;SDS011;5324;50.684;3.862;2024-01-27T08:36:37;11.40;;;6.87;;
10550;SDS011;5324;50.684;3.862;2024-01-27T08:39:03;12.70;;;5.97;;
10550;SDS011;5324;50.684;3.862;2024-01-27T08:41:32;10.30;;;6.30;;
10550;SDS011;5324;50.684;3.862;2024-01-27T08:43:58;13.23;;;5.57;;
10550;SDS011;5324;50.684;3.862;2024-01-27T08:46:24;12.77;;;6.03;;
10550;SDS011;5324;50.684;3.862;2024-01-27T08:48:50;16.87;;;8.90;;
10550;SDS011;5324;50.684;3.862;2024-01-27T08:51:16;17.77;;;9.73;;
10550;SDS011;5324;50.684;3.862;2024-01-27T08:53:45;16.17;;;8.80;;
10550;SDS011;5324;50.684;3.862;2024-01-27T08:56:17;11.73;;;7.53;;
10550;SDS011;5324;50.684;3.862;2024-01-27T08:58:43;11.23;;;7.60;;
10550;SDS011;5324;50.684;3.862;2024-01-27T09:01:09;13.80;;;6.53;;
10550;SDS011;5324;50.684;3.862;2024-01-27T09:03:38;12.30;;;6.50;;
10550;SDS011;5324;50.684;3.862;2024-01-27T09:06:05;11.20;;;6.67;;
10550;SDS011;5324;50.684;3.862;2024-01-27T09:08:32;9.33;;;5.60;;
10550;SDS011;5324;50.684;3.862;2024-01-27T09:10:59;10.13;;;5.77;;
10550;SDS011;5324;50.684;3.862;2024-01-27T09:13:25;8.63;;;5.10;;
10550;SDS011;5324;50.684;3.862;2024-01-27T09:15:51;12.03;;;5.23;;
10550;SDS011;5324;50.684;3.862;2024-01-27T09:18:17;8.63;;;5.10;;
10550;SDS011;5324;50.684;3.862;2024-01-27T09:20:43;13.03;;;5.63;;
10550;SDS011;5324;50.684;3.862;2024-01-27T09:23:09;14.17;;;5.70;;
10550;SDS011;5324;50.684;3.862;2024-01-27T09:25:36;9.87;;;5.53;;
10550;SDS011;5324;50.684;3.862;2024-01-27T09:28:02;8.67;;;5.87;;
10550;SDS011;5324;50.684;3.862;2024-01-27T09:30:28;13.23;;;6.30;;
10550;SDS011;5324;50.684;3.862;2024-01-27T09:32:54;11.63;;;5.70;;
10550;SDS011;5324;50.684;3.862;2024-01-27T09:35:20;11.87;;;5.20;;
10550;SDS011;5324;50.684;3.862;2024-01-27T09:37:46;12.83;;;5.60;;
10550;SDS011;5324;50.684;3.862;2024-01-27T09:40:12;10.80;;;5.57;;
10550;SDS011;5324;50.684;3.862;2024-01-27T09:42:38;11.60;;;5.63;;
10550;SDS011;5324;50.684;3.862;2024-01-27T09:45:05;11.27;;;5.53;;
10550;SDS011;5324;50.684;3.862;2024-01-27T09:47:31;7.93;;;4.60;;
10550;SDS011;5324;50.684;3.862;2024-01-27T09:49:59;11.33;;;5.27;;
10550;SDS011;5324;50.684;3.862;2024-01-27T09:52:26;13.97;;;5.70;;
10550;SDS011;5324;50.684;3.862;2024-01-27T09:54:52;11.37;;;6.33;;
10550;SDS011;5324;50.684;3.862;2024-01-27T09:57:18;9.23;;;5.20;;
10550;SDS011;5324;50.684;3.862;2024-01-27T09:59:45;8.57;;;5.00;;
10550;SDS011;5324;50.684;3.862;2024-01-27T10:02:13;12.23;;;5.87;;
10550;SDS011;5324;50.684;3.862;2024-01-27T10:04:40;8.57;;;5.17;;
10550;SDS011;5324;50.684;3.862;2024-01-27T10:07:06;11.90;;;5.53;;
10550;SDS011;5324;50.684;3.862;2024-01-27T10:09:32;11.47;;;5.93;;
10550;SDS011;5324;50.684;3.862;2024-01-27T10:11:59;10.27;;;5.60;;
10550;SDS011;5324;50.684;3.862;2024-01-27T10:14:30;11.37;;;5.53;;
10550;SDS011;5324;50.684;3.862;2024-01-27T10:17:03;10.33;;;5.20;;
10550;SDS011;5324;50.684;3.862;2024-01-27T10:19:29;11.03;;;6.03;;
10550;SDS011;5324;50.684;3.862;2024-01-27T10:21:59;11.67;;;5.83;;
10550;SDS011;5324;50.684;3.862;2024-01-27T10:24:31;11.03;;;6.07;;
10550;SDS011;5324;50.684;3.862;2024-01-27T10:26:59;13.17;;;5.87;;
10550;SDS011;5324;50.684;3.862;2024-01-27T10:29:25;15.47;;;5.97;;
10550;SDS011;5324;50.684;3.862;2024-01-27T10:31:51;12.27;;;5.90;;
10550;SDS011;5324;50.684;3.862;2024-01-27T10:34:20;14.17;;;5.80;;
10550;SDS011;5324;50.684;3.862;2024-01-27T10:36:47;15.07;;;6.10;;
10550;SDS011;5324;50.684;3.862;2024-01-27T10:39:31;9.37;;;5.63;;
10550;SDS011;5324;50.684;3.862;2024-01-27T10:41:57;11.43;;;6.17;;
10550;SDS011;5324;50.684;3.862;2024-01-27T10:44:24;9.10;;;5.10;;
10550;SDS011;5324;50.684;3.862;2024-01-27T10:46:53;12.30;;;5.40;;
10550;SDS011;5324;50.684;3.862;2024-01-27T10:49:19;12.00;;;5.50;;
10550;SDS011;5324;50.684;3.862;2024-01-27T10:51:55;9.30;;;5.53;;
10550;SDS011;5324;50.684;3.862;2024-01-27T10:54:25;14.10;;;5.30;;
10550;SDS011;5324;50.684;3.862;2024-01-27T10:56:55;12.43;;;5.43;;
10550;SDS011;5324;50.684;3.862;2024-01-27T10:59:22;8.57;;;5.13;;
10550;SDS011;5324;50.684;3.862;2024-01-27T11:01:49;8.17;;;4.47;;
10550;SDS011;5324;50.684;3.862;2024-01-27T11:04:18;7.20;;;4.50;;
10550;SDS011;5324;50.684;3.862;2024-01-27T11:06:45;8.73;;;5.13;;
10550;SDS011;5324;50.684;3.862;2024-01-27T11:09:12;11.40;;;4.83;;
10550;SDS011;5324;50.684;3.862;2024-01-27T11:11:40;9.27;;;4.50;;
10550;SDS011;5324;50.684;3.862;2024-01-27T11:14:06;10.07;;;4.67;;
10550;SDS011;5324;50.684;3.862;2024-01-27T11:16:34;7.23;;;4.40;;
10550;SDS011;5324;50.684;3.862;2024-01-27T11:19:00;11.17;;;4.03;;
10550;SDS011;5324;50.684;3.862;2024-01-27T11:21:26;6.17;;;3.43;;
10550;SDS011;5324;50.684;3.862;2024-01-27T11:23:52;9.47;;;4.13;;
10550;SDS011;5324;50.684;3.862;2024-01-27T11:26:21;7.83;;;4.07;;
10550;SDS011;5324;50.684;3.862;2024-01-27T11:28:48;8.30;;;3.70;;
10550;SDS011;5324;50.684;3.862;2024-01-27T11:31:16;11.57;;;4.00;;
10550;SDS011;5324;50.684;3.862;2024-01-27T11:33:44;10.17;;;4.00;;
10550;SDS011;5324;50.684;3.862;2024-01-27T11:36:17;7.87;;;3.50;;
10550;SDS011;5324;50.684;3.862;2024-01-27T11:38:44;7.20;;;3.23;;
10550;SDS011;5324;50.684;3.862;2024-01-27T11:41:11;8.57;;;3.57;;
10550;SDS011;5324;50.684;3.862;2024-01-27T11:43:37;9.67;;;4.13;;
10550;SDS011;5324;50.684;3.862;2024-01-27T11:46:03;9.13;;;3.87;;
10550;SDS011;5324;50.684;3.862;2024-01-27T11:48:29;8.00;;;3.70;;
10550;SDS011;5324;50.684;3.862;2024-01-27T11:51:02;8.57;;;3.80;;
10550;SDS011;5324;50.684;3.862;2024-01-27T11:53:28;9.73;;;4.43;;
10550;SDS011;5324;50.684;3.862;2024-01-27T11:55:54;6.23;;;3.80;;
10550;SDS011;5324;50.684;3.862;2024-01-27T11:58:25;7.50;;;3.30;;
10550;SDS011;5324;50.684;3.862;2024-01-27T12:00:51;9.27;;;3.60;;
10550;SDS011;5324;50.684;3.862;2024-01-27T12:03:17;10.73;;;3.90;;
10550;SDS011;5324;50.684;3.862;2024-01-27T12:05:44;9.70;;;4.20;;
10550;SDS011;5324;50.684;3.862;2024-01-27T12:08:10;5.97;;;3.50;;
10550;SDS011;5324;50.684;3.862;2024-01-27T12:10:36;11.77;;;3.93;;
10550;SDS011;5324;50.684;3.862;2024-01-27T12:13:02;8.97;;;4.30;;
10550;SDS011;5324;50.684;3.862;2024-01-27T12:15:28;12.53;;;4.43;;
10550;SDS011;5324;50.684;3.862;2024-01-27T12:17:54;7.03;;;3.70;;
10550;SDS011;5324;50.684;3.862;2024-01-27T12:20:22;6.13;;;3.60;;
10550;SDS011;5324;50.684;3.862;2024-01-27T12:22:48;11.30;;;3.50;;
10550;SDS011;5324;50.684;3.862;2024-01-27T12:25:16;10.30;;;3.90;;
10550;SDS011;5324;50.684;3.862;2024-01-27T12:27:43;7.53;;;3.63;;
10550;SDS011;5324;50.684;3.862;2024-01-27T12:30:09;5.30;;;3.20;;
10550;SDS011;5324;50.684;3.862;2024-01-27T12:32:35;10.13;;;3.40;;
10550;SDS011;5324;50.684;3.862;2024-01-27T12:35:05;6.60;;;3.30;;
10550;SDS011;5324;50.684;3.862;2024-01-27T12:37:31;10.40;;;3.30;;
10550;SDS011;5324;50.684;3.862;2024-01-27T12:39:57;9.00;;;3.47;;
10550;SDS011;5324;50.684;3.862;2024-01-27T12:42:23;10.77;;;3.83;;
10550;SDS011;5324;50.684;3.862;2024-01-27T12:44:49;4.27;;;3.10;;
10550;SDS011;5324;50.684;3.862;2024-01-27T12:47:15;8.00;;;2.70;;
10550;SDS011;5324;50.684;3.862;2024-01-27T12:49:41;8.67;;;3.73;;
10550;SDS011;5324;50.684;3.862;2024-01-27T12:52:07;6.63;;;3.43;;
10550;SDS011;5324;50.684;3.862;2024-01-27T12:54:33;9.43;;;3.37;;
10550;SDS011;5324;50.684;3.862;2024-01-27T12:56:59;15.40;;;3.43;;
10550;SDS011;5324;50.684;3.862;2024-01-27T12:59:26;4.67;;;2.67;;
10550;SDS011;5324;50.684;3.862;2024-01-27T13:01:53;9.37;;;3.20;;
10550;SDS011;5324;50.684;3.862;2024-01-27T13:04:20;7.97;;;3.57;;
10550;SDS011;5324;50.684;3.862;2024-01-27T13:06:46;7.80;;;3.03;;
10550;SDS011;5324;50.684;3.862;2024-01-27T13:09:12;8.93;;;3.70;;
10550;SDS011;5324;50.684;3.862;2024-01-27T13:11:38;8.37;;;3.37;;
10550;SDS011;5324;50.684;3.862;2024-01-27T13:14:05;7.83;;;3.40;;
10550;SDS011;5324;50.684;3.862;2024-01-27T13:16:31;4.87;;;2.90;;
10550;SDS011;5324;50.684;3.862;2024-01-27T13:18:57;7.97;;;3.07;;
10550;SDS011;5324;50.684;3.862;2024-01-27T13:21:23;7.47;;;2.83;;
10550;SDS011;5324;50.684;3.862;2024-01-27T13:23:49;6.00;;;3.27;;
10550;SDS011;5324;50.684;3.862;2024-01-27T13:26:17;6.43;;;3.00;;
10550;SDS011;5324;50.684;3.862;2024-01-27T13:28:43;7.70;;;2.83;;
10550;SDS011;5324;50.684;3.862;2024-01-27T13:31:09;8.20;;;2.63;;
10550;SDS011;5324;50.684;3.862;2024-01-27T13:33:35;10.33;;;2.80;;
10550;SDS011;5324;50.684;3.862;2024-01-27T13:36:01;8.17;;;2.40;;
10550;SDS011;5324;50.684;3.862;2024-01-27T13:38:29;3.73;;;2.17;;
10550;SDS011;5324;50.684;3.862;2024-01-27T13:40:55;7.03;;;2.40;;
10550;SDS011;5324;50.684;3.862;2024-01-27T13:43:21;5.07;;;2.10;;
10550;SDS011;5324;50.684;3.862;2024-01-27T13:45:47;7.33;;;2.37;;
10550;SDS011;5324;50.684;3.862;2024-01-27T13:48:13;6.33;;;2.37;;
10550;SDS011;5324;50.684;3.862;2024-01-27T13:50:40;3.30;;;2.47;;
10550;SDS011;5324;50.684;3.862;2024-01-27T13:53:06;6.80;;;2.87;;
10550;SDS011;5324;50.684;3.862;2024-01-27T13:55:32;5.07;;;2.30;;
10550;SDS011;5324;50.684;3.862;2024-01-27T13:57:58;4.67;;;2.90;;
10550;SDS011;5324;50.684;3.862;2024-01-27T14:00:24;7.67;;;3.10;;
10550;SDS011;5324;50.684;3.862;2024-01-27T14:02:50;8.07;;;3.43;;
10550;SDS011;5324;50.684;3.862;2024-01-27T14:05:16;7.93;;;3.23;;
10550;SDS011;5324;50.684;3.862;2024-01-27T14:07:42;6.83;;;3.50;;
10550;SDS011;5324;50.684;3.862;2024-01-27T14:10:09;6.27;;;3.60;;
10550;SDS011;5324;50.684;3.862;2024-01-27T14:12:35;7.57;;;2.83;;
10550;SDS011;5324;50.684;3.862;2024-01-27T14:15:02;5.03;;;2.70;;
10550;SDS011;5324;50.684;3.862;2024-01-27T14:17:29;4.27;;;2.37;;
10550;SDS011;5324;50.684;3.862;2024-01-27T14:19:55;7.77;;;2.33;;
10550;SDS011;5324;50.684;3.862;2024-01-27T14:22:21;10.40;;;2.93;;
10550;SDS011;5324;50.684;3.862;2024-01-27T14:24:47;11.30;;;2.90;;
10550;SDS011;5324;50.684;3.862;2024-01-27T14:27:13;4.10;;;1.97;;
10550;SDS011;5324;50.684;3.862;2024-01-27T14:29:40;6.93;;;2.30;;
10550;SDS011;5324;50.684;3.862;2024-01-27T14:32:06;7.47;;;2.80;;
10550;SDS011;5324;50.684;3.862;2024-01-27T14:34:32;6.13;;;2.20;;
10550;SDS011;5324;50.684;3.862;2024-01-27T14:36:58;7.10;;;3.17;;
10550;SDS011;5324;50.684;3.862;2024-01-27T14:39:27;5.30;;;3.37;;
10550;SDS011;5324;50.684;3.862;2024-01-27T14:41:53;9.30;;;2.90;;
10550;SDS011;5324;50.684;3.862;2024-01-27T14:44:19;7.53;;;3.00;;
10550;SDS011;5324;50.684;3.862;2024-01-27T14:46:46;9.73;;;3.30;;
10550;SDS011;5324;50.684;3.862;2024-01-27T14:49:12;5.60;;;2.53;;
10550;SDS011;5324;50.684;3.862;2024-01-27T14:51:38;4.87;;;2.60;;